Lamar, Nebraska
Current Conditions -  °F | °C
As of 6:53 PM on Sunday 21 Dec 2014 (Local Time) from KIML Reporting Station
Overcast Overcast  
Wind Chill: 37°   Ceiling: 8000
Heat Index: 37°   Visibility: 10mi
Dew Point: 31°   Wind: 0mph
Humidity: 79%   Direction: NA
Pressure: 29.5"   Gusts: NA
Location:  40.5076°N, 101.891°W
Report Text: KIML 220153Z AUTO 00000KT 10SM SCT060 BKN080 OVC110 03/M01 A2950 RMK AO2 RAB39E46 SLP013 P0000 T00281006
Loading
Personal Weather Stations






























Interactive Weather Map New forecast layout! Learn more

10-Day Weather Forecast

Advertisements
Track Severe Weather on mobile